Time;durP1;ratioP1;P1;durP2;ratioP2;P2;SDS_P1;SDS_P2;PMS_P1;PMS_P2;Temp;Humidity;BMP_temperature;BMP_pressure;BME280_temperature;BME280_humidity;BME280_pressure;Samples;Min_cycle;Max_cycle;Signal;HPM_P1;HPM_P2
2023/03/02 00:02:20;;;;;;;9.32;4.60;;;-0.30;99.90;;;;;;12442276;28;20064;-87
2023/03/02 00:08:22;;;;;;;12.88;5.75;;;-0.50;99.90;;;;;;12465030;28;20049;-87
2023/03/02 00:14:24;;;;;;;11.85;5.53;;;-0.50;99.90;;;;;;12460329;28;20080;-87
2023/03/02 00:20:26;;;;;;;12.73;5.22;;;-0.60;99.90;;;;;;12448642;28;20041;-87
2023/03/02 00:26:28;;;;;;;11.77;5.25;;;-0.70;99.90;;;;;;12468336;28;20049;-87
2023/03/02 00:32:29;;;;;;;13.95;5.68;;;-0.70;99.90;;;;;;12454797;28;20147;-87
2023/03/02 00:38:34;;;;;;;9.63;5.03;;;-0.70;99.90;;;;;;12462835;28;20053;-87
2023/03/02 00:44:36;;;;;;;;;;;-0.90;99.90;;;;;;12456849;28;20037;-87
2023/03/02 00:50:39;;;;;;;13.75;4.57;;;-0.80;99.90;;;;;;12438169;28;19925;-86
2023/03/02 00:56:42;;;;;;;9.40;4.83;;;-0.80;99.90;;;;;;12460878;28;20053;-86
2023/03/02 01:02:43;;;;;;;15.13;5.90;;;-0.70;99.90;;;;;;12458810;28;20049;-87
2023/03/02 01:08:46;;;;;;;9.75;4.32;;;-0.80;99.90;;;;;;12457139;28;20056;-87
2023/03/02 01:14:49;;;;;;;11.25;4.50;;;-0.80;99.90;;;;;;12462231;28;20049;-87
2023/03/02 01:21:04;;;;;;;9.50;4.93;;;-0.80;99.90;;;;;;12467967;28;20056;-87
2023/03/02 01:27:06;;;;;;;11.93;4.82;;;-0.70;99.90;;;;;;12445505;28;20053;-87
2023/03/02 01:33:07;;;;;;;9.13;4.82;;;-0.50;99.90;;;;;;12465594;28;20417;-87
2023/03/02 01:39:10;;;;;;;8.93;4.55;;;-0.40;99.90;;;;;;12463462;28;20057;-87
2023/03/02 01:45:42;;;;;;;9.60;4.63;;;-0.40;99.90;;;;;;12448152;28;20184;-86
2023/03/02 01:51:46;;;;;;;8.60;5.05;;;-0.50;99.90;;;;;;12467669;28;20037;-87
2023/03/02 01:57:50;;;;;;;8.27;4.50;;;-0.50;99.90;;;;;;12474647;28;20177;-87
2023/03/02 02:03:51;;;;;;;8.63;5.10;;;-0.70;99.90;;;;;;12461841;28;20409;-86
2023/03/02 02:09:55;;;;;;;10.85;4.95;;;-0.70;99.90;;;;;;12461522;28;21368;-87
2023/03/02 02:15:57;;;;;;;8.82;4.82;;;-0.70;99.90;;;;;;12444509;28;20087;-87
2023/03/02 02:21:59;;;;;;;9.85;5.45;;;-0.60;99.90;;;;;;12457123;28;20493;-87
2023/03/02 02:28:08;;;;;;;10.43;5.03;;;-0.60;99.90;;;;;;12457997;28;20054;-87
2023/03/02 02:34:12;;;;;;;9.40;4.63;;;-0.50;99.90;;;;;;12451720;28;20137;-87
2023/03/02 02:40:19;;;;;;;9.80;4.55;;;-0.50;99.90;;;;;;12469417;28;20053;-87
2023/03/02 02:46:22;;;;;;;8.88;4.68;;;-0.50;99.90;;;;;;12460912;28;20448;-87
2023/03/02 02:52:26;;;;;;;8.85;4.78;;;-0.60;99.90;;;;;;12446611;28;20180;-87
2023/03/02 02:58:47;;;;;;;10.23;4.72;;;-0.70;99.90;;;;;;12431728;28;20060;-86
2023/03/02 03:04:49;;;;;;;10.63;4.90;;;-0.80;99.90;;;;;;12484599;28;20054;-87
2023/03/02 03:10:53;;;;;;;8.93;5.10;;;-0.90;99.90;;;;;;12459865;28;20052;-87
2023/03/02 03:16:55;;;;;;;8.88;4.55;;;-0.90;99.90;;;;;;12456275;28;20052;-87
2023/03/02 03:22:59;;;;;;;10.63;5.93;;;-0.90;99.90;;;;;;12455397;28;20560;-87
2023/03/02 03:29:01;;;;;;;9.50;5.33;;;-1.00;99.90;;;;;;12463018;28;20094;-87
2023/03/02 03:35:07;;;;;;;10.15;4.95;;;-1.00;99.90;;;;;;12455241;28;20049;-86
2023/03/02 03:41:11;;;;;;;9.75;4.80;;;-1.00;99.90;;;;;;12462301;28;20080;-87
2023/03/02 03:47:16;;;;;;;9.77;4.80;;;-1.10;99.90;;;;;;12483702;28;20053;-87
2023/03/02 03:53:18;;;;;;;10.93;4.47;;;-1.10;99.90;;;;;;12465211;28;20424;-87
2023/03/02 03:59:22;;;;;;;11.13;4.97;;;-1.00;99.90;;;;;;12474926;28;20073;-87
2023/03/02 04:05:25;;;;;;;13.25;5.55;;;-1.00;99.90;;;;;;12458616;28;20073;-87
2023/03/02 04:11:27;;;;;;;10.00;4.25;;;-1.10;99.90;;;;;;12467055;28;20122;-87
2023/03/02 04:17:30;;;;;;;10.20;4.70;;;-1.10;99.90;;;;;;12447688;28;20474;-87
2023/03/02 04:23:32;;;;;;;9.65;4.32;;;-1.00;99.90;;;;;;12465030;28;20180;-87
2023/03/02 04:29:34;;;;;;;10.70;5.30;;;-1.10;99.90;;;;;;12467153;28;20053;-86
2023/03/02 04:35:37;;;;;;;9.75;4.85;;;-1.10;99.90;;;;;;12450329;28;20132;-87
2023/03/02 04:41:39;;;;;;;10.35;5.20;;;-1.00;99.90;;;;;;12452060;28;20074;-87
2023/03/02 04:47:41;;;;;;;11.98;5.80;;;-1.00;99.90;;;;;;12453781;28;20057;-87
2023/03/02 04:53:43;;;;;;;11.07;5.50;;;-1.10;99.90;;;;;;12438180;28;20057;-87
2023/03/02 04:59:48;;;;;;;12.95;6.50;;;-1.10;99.90;;;;;;12457728;28;20045;-87
2023/03/02 05:05:50;;;;;;;14.68;7.35;;;-1.10;99.90;;;;;;12458080;28;20084;-87
2023/03/02 05:11:54;;;;;;;17.70;7.18;;;-1.20;99.90;;;;;;12464642;28;20455;-87
2023/03/02 05:17:56;;;;;;;14.60;7.47;;;-1.30;99.90;;;;;;12453559;28;20473;-87
2023/03/02 05:23:58;;;;;;;19.73;8.80;;;-1.40;99.90;;;;;;12452627;28;20424;-87
2023/03/02 05:30:00;;;;;;;19.38;8.75;;;-1.40;99.90;;;;;;12463126;28;20459;-87
2023/03/02 05:36:02;;;;;;;17.60;8.93;;;-1.40;99.90;;;;;;12447056;28;20045;-88
2023/03/02 05:42:04;;;;;;;19.38;9.50;;;-1.40;99.90;;;;;;12460606;28;20053;-87
2023/03/02 05:48:07;;;;;;;21.42;9.82;;;-1.50;99.90;;;;;;12448209;28;20136;-87
2023/03/02 05:54:08;;;;;;;23.40;10.38;;;-1.60;99.90;;;;;;12453352;28;20611;-88
2023/03/02 06:00:12;;;;;;;20.17;10.18;;;-1.70;99.90;;;;;;12449338;28;20455;-87
2023/03/02 06:06:15;;;;;;;21.38;10.40;;;-1.70;99.90;;;;;;12448927;28;20508;-89
2023/03/02 06:12:18;;;;;;;22.77;11.02;;;-1.80;99.90;;;;;;12441865;28;20045;-88
2023/03/02 06:18:20;;;;;;;25.52;12.60;;;-1.90;99.90;;;;;;12466876;28;20730;-89
2023/03/02 06:24:23;;;;;;;27.88;13.48;;;-2.00;99.90;;;;;;12479229;28;20060;-89
2023/03/02 06:30:26;;;;;;;27.20;12.98;;;-2.10;99.90;;;;;;12416012;28;20365;-89
2023/03/02 06:36:28;;;;;;;30.85;13.55;;;-2.10;99.90;;;;;;12468015;28;20429;-89
2023/03/02 06:42:30;;;;;;;28.83;13.70;;;-2.10;99.90;;;;;;12461289;28;20436;-89
2023/03/02 06:48:32;;;;;;;35.72;13.95;;;-2.00;99.90;;;;;;12461976;28;20085;-89
2023/03/02 06:54:35;;;;;;;71.82;15.13;;;-2.00;99.90;;;;;;12459216;28;20545;-89
2023/03/02 07:00:39;;;;;;;49.67;14.50;;;-2.00;99.90;;;;;;12468805;28;20061;-89
2023/03/02 07:06:42;;;;;;;45.45;14.57;;;-1.90;99.90;;;;;;12457927;28;20413;-89
2023/03/02 07:12:44;;;;;;;49.05;15.38;;;-1.80;99.90;;;;;;12491445;28;20400;-89
2023/03/02 07:18:46;;;;;;;80.72;14.73;;;-1.70;99.90;;;;;;12480291;28;20056;-89
2023/03/02 07:24:48;;;;;;;79.47;16.95;;;-1.70;99.90;;;;;;12475582;28;20046;-89
2023/03/02 07:30:54;;;;;;;91.45;16.30;;;-1.70;99.90;;;;;;12475907;28;20143;-89
2023/03/02 07:36:56;;;;;;;51.28;17.27;;;-1.60;99.90;;;;;;12459829;28;20147;-89
2023/03/02 07:42:58;;;;;;;70.60;15.82;;;-1.40;99.90;;;;;;12443637;28;20041;-89
2023/03/02 07:49:01;;;;;;;61.78;17.70;;;-1.40;99.90;;;;;;12457975;28;20056;-89
2023/03/02 07:55:03;;;;;;;60.28;17.33;;;-1.30;99.90;;;;;;12462487;28;20069;-89
2023/03/02 08:01:05;;;;;;;37.58;15.45;;;-1.20;99.90;;;;;;12474172;28;20068;-89
2023/03/02 08:07:07;;;;;;;28.00;13.95;;;-1.10;99.90;;;;;;12463088;28;20057;-89
2023/03/02 08:13:10;;;;;;;56.20;15.18;;;-1.10;99.90;;;;;;12459246;28;20069;-89
2023/03/02 08:19:14;;;;;;;56.42;16.17;;;-1.00;99.90;;;;;;12470537;28;20528;-89
2023/03/02 08:25:16;;;;;;;42.78;15.30;;;-0.90;99.90;;;;;;12459162;28;20053;-89
2023/03/02 08:31:18;;;;;;;36.45;16.02;;;-1.10;99.90;;;;;;12455743;28;20061;-89
2023/03/02 08:37:20;;;;;;;31.52;15.07;;;-0.60;99.90;;;;;;12465442;28;20084;-89
2023/03/02 08:43:24;;;;;;;31.58;15.43;;;-0.50;99.90;;;;;;12474858;28;20112;-89
2023/03/02 08:49:26;;;;;;;33.73;15.70;;;0.00;99.90;;;;;;12461650;28;20041;-90
2023/03/02 08:55:29;;;;;;;32.38;15.88;;;0.40;99.90;;;;;;12462448;28;20352;-90
2023/03/02 09:01:34;;;;;;;30.55;15.73;;;0.30;99.90;;;;;;12465383;28;20053;-90
2023/03/02 09:07:37;;;;;;;31.75;14.80;;;0.30;99.90;;;;;;12467548;28;20050;-90
2023/03/02 09:13:39;;;;;;;35.13;17.70;;;0.30;99.90;;;;;;12449850;28;20060;-90
2023/03/02 09:19:42;;;;;;;32.25;17.13;;;0.40;99.90;;;;;;12456088;28;20436;-90
2023/03/02 09:25:48;;;;;;;28.70;15.25;;;0.70;99.90;;;;;;12463530;28;20195;-91
2023/03/02 09:31:51;;;;;;;24.60;13.15;;;1.10;99.90;;;;;;12446722;28;20536;-90
2023/03/02 09:37:53;;;;;;;21.83;12.23;;;1.30;99.90;;;;;;12452300;28;20052;-90
2023/03/02 09:44:17;;;;;;;27.55;13.05;;;1.30;99.90;;;;;;12468475;28;20139;-90
2023/03/02 09:50:49;;;;;;;25.77;13.67;;;1.50;99.90;;;;;;12426559;28;20084;-90
2023/03/02 09:56:57;;;;;;;24.27;12.93;;;1.70;99.90;;;;;;12464074;28;20111;-90
2023/03/02 10:03:07;;;;;;;25.17;13.57;;;2.40;99.90;;;;;;12469907;28;20045;-91
2023/03/02 10:09:18;;;;;;;26.75;14.25;;;2.60;99.90;;;;;;12465133;28;20058;-91
2023/03/02 10:15:23;;;;;;;23.85;12.57;;;1.90;99.90;;;;;;12448972;28;20050;-91
2023/03/02 10:21:41;;;;;;;25.85;13.80;;;1.60;99.90;;;;;;12482817;28;20049;-91
2023/03/02 10:27:54;;;;;;;26.70;13.90;;;1.60;99.90;;;;;;12486258;28;20058;-90
2023/03/02 10:33:59;;;;;;;25.98;14.15;;;1.80;99.90;;;;;;12445541;28;20051;-91
2023/03/02 10:40:25;;;;;;;28.38;14.60;;;1.80;99.90;;;;;;12438531;28;20054;-91
2023/03/02 10:46:45;;;;;;;25.55;12.57;;;2.00;99.90;;;;;;12466642;28;20045;-91
2023/03/02 10:52:52;;;;;;;27.23;14.30;;;2.30;99.90;;;;;;12442691;28;20045;-91
2023/03/02 10:59:27;;;;;;;28.58;13.98;;;2.20;99.90;;;;;;12468291;28;21890;-91
2023/03/02 11:05:34;;;;;;;28.45;14.52;;;2.10;99.90;;;;;;12462875;28;20129;-91
2023/03/02 11:11:39;;;;;;;29.05;15.82;;;2.20;99.90;;;;;;12482587;28;20057;-91
2023/03/02 11:17:57;;;;;;;28.83;15.38;;;2.50;99.90;;;;;;12455225;28;20425;-91
2023/03/02 11:24:17;;;;;;;29.67;15.38;;;3.00;99.90;;;;;;12464754;28;20132;-91
2023/03/02 11:30:22;;;;;;;26.83;14.60;;;3.00;99.90;;;;;;12468750;28;20095;-90
2023/03/02 11:36:43;;;;;;;27.42;15.48;;;3.70;99.90;;;;;;12470237;28;20049;-91
2023/03/02 11:42:46;;;;;;;27.25;15.25;;;3.80;99.90;;;;;;12487649;28;20072;-91
2023/03/02 11:49:07;;;;;;;30.08;15.07;;;3.90;99.90;;;;;;12482399;28;20478;-91
2023/03/02 11:55:21;;;;;;;25.90;14.80;;;4.40;99.90;;;;;;12471281;28;20091;-91
2023/03/02 12:01:28;;;;;;;27.17;14.30;;;4.50;99.90;;;;;;12429368;28;20517;-92
2023/03/02 12:07:30;;;;;;;27.35;14.68;;;4.40;99.90;;;;;;12463775;28;20110;-91
2023/03/02 12:13:39;;;;;;;23.25;13.88;;;4.50;99.90;;;;;;12473383;28;20424;-92
2023/03/02 12:19:45;;;;;;;27.27;14.60;;;4.70;99.90;;;;;;12475227;28;20414;-91
2023/03/02 12:25:50;;;;;;;25.53;13.83;;;4.70;99.90;;;;;;12468887;28;20056;-91
2023/03/02 12:32:08;;;;;;;25.55;13.75;;;4.90;99.90;;;;;;12462158;28;20053;-91
2023/03/02 12:38:31;;;;;;;25.98;14.25;;;5.30;99.90;;;;;;12423322;28;20053;-91
2023/03/02 12:44:51;;;;;;;25.20;14.48;;;5.60;99.90;;;;;;12469783;28;20107;-91
2023/03/02 12:51:02;;;;;;;23.50;13.60;;;5.60;99.90;;;;;;12462935;28;20413;-92
2023/03/02 12:57:19;;;;;;;25.27;14.27;;;5.10;99.90;;;;;;12468701;28;20456;-91
2023/03/02 13:03:22;;;;;;;25.08;14.65;;;4.90;99.90;;;;;;12475836;28;20095;-91
2023/03/02 13:09:24;;;;;;;29.23;16.10;;;4.90;99.90;;;;;;12467060;28;20072;-89
2023/03/02 13:15:27;;;;;;;26.77;15.90;;;4.60;99.90;;;;;;12456842;28;20053;-89
2023/03/02 13:21:34;;;;;;;28.60;14.98;;;4.80;99.90;;;;;;12466696;28;20405;-89
2023/03/02 13:27:38;;;;;;;26.42;15.00;;;4.90;99.90;;;;;;12477825;28;20072;-89
2023/03/02 13:33:46;;;;;;;26.17;14.48;;;4.80;99.90;;;;;;12461843;28;20333;-89
2023/03/02 13:39:56;;;;;;;27.23;14.77;;;5.10;99.90;;;;;;12473351;28;20154;-89
2023/03/02 13:46:06;;;;;;;23.83;13.95;;;5.10;99.90;;;;;;12481532;28;20506;-89
2023/03/02 13:52:40;;;;;;;23.73;14.20;;;5.10;99.90;;;;;;12475816;28;20049;-89
2023/03/02 13:58:58;;;;;;;24.42;13.25;;;4.70;99.90;;;;;;12456929;28;20136;-89
2023/03/02 14:05:05;;;;;;;23.80;13.82;;;4.80;99.90;;;;;;12468169;28;20042;-89
2023/03/02 14:11:15;;;;;;;22.55;13.02;;;4.60;99.90;;;;;;12450239;28;20520;-89
2023/03/02 14:17:22;;;;;;;23.13;13.95;;;4.50;99.90;;;;;;12465326;28;20050;-89
2023/03/02 14:23:28;;;;;;;22.88;12.95;;;4.70;99.90;;;;;;12460470;28;20053;-89
2023/03/02 14:29:36;;;;;;;19.85;12.02;;;4.50;99.90;;;;;;12470543;28;20045;-89
2023/03/02 14:35:38;;;;;;;22.27;13.60;;;4.40;99.90;;;;;;12461162;28;20453;-89
2023/03/02 14:41:41;;;;;;;24.10;14.77;;;4.50;99.90;;;;;;12460987;28;20091;-89
2023/03/02 14:47:54;;;;;;;23.00;14.40;;;4.50;99.90;;;;;;12466077;28;20045;-89
2023/03/02 14:53:59;;;;;;;22.95;14.32;;;4.40;99.90;;;;;;12460371;28;20053;-89
2023/03/02 15:00:04;;;;;;;23.95;13.90;;;4.60;99.90;;;;;;12469391;28;20132;-89
2023/03/02 15:06:26;;;;;;;22.33;14.35;;;4.50;99.90;;;;;;12444589;28;20067;-89
2023/03/02 15:12:28;;;;;;;20.75;12.85;;;4.20;99.90;;;;;;12457362;28;20050;-89
2023/03/02 15:18:30;;;;;;;27.00;15.95;;;4.20;99.90;;;;;;12463621;28;20464;-89
2023/03/02 15:24:32;;;;;;;26.63;15.50;;;4.20;99.90;;;;;;12466680;28;20041;-89
2023/03/02 15:30:36;;;;;;;24.48;15.32;;;3.70;99.90;;;;;;12468719;28;20041;-89
2023/03/02 15:36:38;;;;;;;23.55;15.05;;;3.90;99.90;;;;;;12482379;28;20050;-89
2023/03/02 15:42:40;;;;;;;24.45;14.77;;;4.00;99.90;;;;;;12464339;28;20069;-89
2023/03/02 15:48:42;;;;;;;26.50;15.07;;;3.90;99.90;;;;;;12446354;28;20084;-88
2023/03/02 15:54:45;;;;;;;24.73;13.77;;;3.70;99.90;;;;;;12476802;28;20045;-89
2023/03/02 16:00:48;;;;;;;28.90;15.60;;;3.40;99.90;;;;;;12474243;28;20049;-89
2023/03/02 16:06:50;;;;;;;30.92;18.30;;;3.30;99.90;;;;;;12494602;28;20095;-89
2023/03/02 16:19:15;;;;;;;33.55;20.15;;;2.60;99.90;;;;;;7385869;23;20107;-38
2023/03/02 16:25:20;;;;;;;32.92;18.60;;;2.30;99.90;;;;;;12471785;28;20050;-38
2023/03/02 16:31:25;;;;;;;33.10;18.90;;;2.20;99.90;;;;;;12486422;28;20037;-37
2023/03/02 16:37:28;;;;;;;34.90;18.55;;;2.20;99.90;;;;;;12483025;28;20102;-37
2023/03/02 16:43:31;;;;;;;31.70;18.02;;;2.20;99.90;;;;;;12477083;28;20175;-39
2023/03/02 16:49:33;;;;;;;31.20;16.98;;;2.00;99.90;;;;;;12478633;28;20456;-40
2023/03/02 16:55:36;;;;;;;32.33;18.35;;;1.90;99.90;;;;;;12486249;28;20509;-37
2023/03/02 17:01:38;;;;;;;32.70;17.17;;;1.80;99.90;;;;;;12477423;28;20052;-37
2023/03/02 17:07:41;;;;;;;28.10;16.77;;;1.70;99.90;;;;;;12468910;28;20050;-38
2023/03/02 17:13:43;;;;;;;30.95;15.35;;;1.70;99.90;;;;;;12485849;28;20042;-38
2023/03/02 17:19:45;;;;;;;28.00;15.43;;;1.70;99.90;;;;;;12458398;28;20173;-39
2023/03/02 17:25:47;;;;;;;30.40;16.52;;;1.60;99.90;;;;;;12479413;28;20037;-37
2023/03/02 17:31:49;;;;;;;35.35;17.65;;;1.50;99.90;;;;;;12472548;28;20057;-39
2023/03/02 17:37:51;;;;;;;34.45;18.52;;;1.50;99.90;;;;;;12467136;28;20517;-38
2023/03/02 17:43:53;;;;;;;37.58;19.08;;;1.50;99.90;;;;;;12469271;28;20076;-39
2023/03/02 17:49:57;;;;;;;29.63;16.50;;;1.60;99.90;;;;;;12474047;28;20048;-38
2023/03/02 17:55:59;;;;;;;33.10;16.20;;;1.40;99.90;;;;;;12470048;28;20041;-38
2023/03/02 18:02:01;;;;;;;31.95;17.08;;;1.30;99.90;;;;;;12476602;28;20698;-38
2023/03/02 18:08:03;;;;;;;35.85;16.75;;;1.30;99.90;;;;;;12471405;28;20175;-38
2023/03/02 18:14:06;;;;;;;37.90;18.08;;;1.20;99.90;;;;;;12476436;28;20068;-38
2023/03/02 18:20:09;;;;;;;39.25;17.58;;;1.10;99.90;;;;;;12482529;28;20140;-38
2023/03/02 18:26:12;;;;;;;37.25;16.25;;;1.20;99.90;;;;;;12483608;28;20053;-38
2023/03/02 18:32:14;;;;;;;32.10;17.65;;;1.10;99.90;;;;;;12482637;28;20136;-40
2023/03/02 18:38:17;;;;;;;37.75;15.18;;;1.00;99.90;;;;;;12483190;28;20136;-38
2023/03/02 18:44:19;;;;;;;40.58;16.92;;;0.90;99.90;;;;;;12483477;28;20046;-38
2023/03/02 18:50:21;;;;;;;66.57;18.27;;;1.00;99.90;;;;;;12478003;28;20060;-38
2023/03/02 18:56:23;;;;;;;61.03;16.77;;;0.90;99.90;;;;;;12481105;28;20099;-37
2023/03/02 19:02:27;;;;;;;68.30;17.38;;;0.90;99.90;;;;;;12479462;28;20041;-39
2023/03/02 19:08:29;;;;;;;45.90;17.25;;;1.00;99.90;;;;;;12480806;28;20485;-38
2023/03/02 19:14:31;;;;;;;62.50;19.73;;;1.00;99.90;;;;;;12485971;28;20215;-37
2023/03/02 19:20:35;;;;;;;75.45;21.55;;;0.90;99.90;;;;;;12489533;28;20076;-37
2023/03/02 19:26:37;;;;;;;96.15;20.27;;;0.90;99.90;;;;;;12455748;28;20718;-38
2023/03/02 19:32:42;;;;;;;66.65;18.95;;;1.00;99.90;;;;;;12481319;28;20126;-38
2023/03/02 19:38:45;;;;;;;51.03;18.75;;;1.00;99.90;;;;;;12478648;28;20069;-38
2023/03/02 19:44:47;;;;;;;100.28;21.13;;;1.00;99.90;;;;;;12475855;28;20544;-37
2023/03/02 19:50:53;;;;;;;88.20;21.15;;;1.00;99.90;;;;;;12472995;28;20045;-38
2023/03/02 19:56:55;;;;;;;64.05;19.00;;;1.00;99.90;;;;;;12477666;28;20067;-38
2023/03/02 20:02:58;;;;;;;122.05;23.10;;;1.00;99.90;;;;;;12477785;28;20107;-38
2023/03/02 20:09:04;;;;;;;82.15;21.40;;;1.00;99.90;;;;;;12480523;28;20041;-38
2023/03/02 20:15:06;;;;;;;60.28;20.75;;;1.00;99.90;;;;;;12481577;28;20044;-38
2023/03/02 20:21:08;;;;;;;48.03;19.48;;;1.00;99.90;;;;;;12487776;28;20505;-37
2023/03/02 20:27:11;;;;;;;43.10;19.13;;;1.00;99.90;;;;;;12464944;28;20044;-37
2023/03/02 20:33:15;;;;;;;40.42;18.15;;;1.00;99.90;;;;;;12492222;28;20049;-38
2023/03/02 20:39:30;;;;;;;61.35;22.48;;;1.00;99.90;;;;;;12478214;28;20060;-38
2023/03/02 20:45:32;;;;;;;49.70;21.25;;;1.00;99.90;;;;;;12489017;28;20045;-38
2023/03/02 20:51:38;;;;;;;50.55;19.80;;;1.00;99.90;;;;;;12473143;28;20596;-38
2023/03/02 20:57:40;;;;;;;52.30;19.90;;;0.90;99.90;;;;;;12486210;28;20041;-40
2023/03/02 21:03:45;;;;;;;41.42;19.23;;;1.00;99.90;;;;;;12487980;28;20135;-38
2023/03/02 21:09:48;;;;;;;41.15;18.17;;;0.90;99.90;;;;;;12470193;28;20095;-38
2023/03/02 21:15:50;;;;;;;36.53;17.27;;;0.90;99.90;;;;;;12489329;28;20057;-38
2023/03/02 21:21:54;;;;;;;36.17;17.90;;;1.00;99.90;;;;;;12478911;28;20064;-38
2023/03/02 21:27:56;;;;;;;35.72;16.35;;;1.00;99.90;;;;;;12471898;28;20045;-38
2023/03/02 21:33:59;;;;;;;31.42;15.48;;;1.00;99.90;;;;;;12473320;28;20056;-38
2023/03/02 21:40:01;;;;;;;33.97;16.55;;;1.10;99.90;;;;;;12474789;28;20077;-38
2023/03/02 21:46:04;;;;;;;32.78;16.42;;;1.10;99.90;;;;;;12457726;28;20489;-39
2023/03/02 21:52:06;;;;;;;26.33;14.48;;;1.20;99.90;;;;;;12478411;28;20405;-38
2023/03/02 21:58:09;;;;;;;33.45;16.00;;;1.20;99.90;;;;;;12472343;28;20041;-38
2023/03/02 22:04:11;;;;;;;29.63;15.10;;;1.30;99.90;;;;;;12478881;28;20037;-38
2023/03/02 22:10:39;;;;;;;28.42;14.32;;;1.20;99.90;;;;;;12454538;28;20437;-38
2023/03/02 22:16:46;;;;;;;25.42;13.65;;;1.30;99.90;;;;;;12478356;28;20061;-38
2023/03/02 22:22:52;;;;;;;24.17;13.70;;;1.30;99.90;;;;;;12462375;28;20045;-38
2023/03/02 22:29:02;;;;;;;22.88;13.02;;;1.40;99.90;;;;;;12471617;28;20041;-39
2023/03/02 22:35:24;;;;;;;26.08;13.70;;;1.40;99.90;;;;;;12487834;28;20188;-38
2023/03/02 22:41:26;;;;;;;24.85;12.43;;;1.40;99.90;;;;;;12497157;28;20050;-38
2023/03/02 22:47:28;;;;;;;30.02;14.55;;;1.40;99.90;;;;;;12497320;28;20544;-38
2023/03/02 22:53:34;;;;;;;30.30;15.13;;;1.40;99.90;;;;;;12508154;28;20073;-38
2023/03/02 22:59:36;;;;;;;31.70;15.27;;;1.40;99.90;;;;;;12470330;28;20096;-39
2023/03/02 23:05:39;;;;;;;29.42;15.00;;;1.50;99.90;;;;;;12489563;28;20045;-39
2023/03/02 23:11:41;;;;;;;28.70;13.68;;;1.40;99.90;;;;;;12502790;28;20041;-38
2023/03/02 23:17:45;;;;;;;28.20;14.43;;;1.40;99.90;;;;;;12486359;28;20114;-38
2023/03/02 23:23:49;;;;;;;24.60;14.35;;;1.40;99.90;;;;;;12483493;28;20075;-38
2023/03/02 23:29:52;;;;;;;22.77;13.43;;;1.50;99.90;;;;;;12485139;28;20051;-37
2023/03/02 23:35:54;;;;;;;28.85;14.77;;;1.40;99.90;;;;;;12468810;28;20041;-38
2023/03/02 23:41:56;;;;;;;24.83;13.23;;;1.50;99.90;;;;;;12465594;28;20050;-38
2023/03/02 23:47:58;;;;;;;24.50;12.45;;;1.50;99.90;;;;;;12494377;28;20094;-39
2023/03/02 23:54:00;;;;;;;24.30;12.05;;;1.40;99.90;;;;;;12480807;28;20080;-38
